»·PEaware :: N2548T KTUS-KPHX

N2548T :: KTUS-KPHX

FLIGHT INFORMATION

Flight Status: Arrived
Operator: Privately registered:
United States
More flights under this callsign
Pilot: Edward K. (32197)
Aircraft: CESSNA 172 SKYHAWK
(C172)
More flights by this aircraft type
Origin: KTUS Tucson Intl
United States
Destination: KPHX Phoenix Sky Harbor Intl
United States
More flights between these airports :: More routes between these airports
Route: +
File this flight plan on PilotEdge
Remarks:
Altitude:
(Current/Filed)
4,500ft
Speed:
(Current/Filed)
115kts
Departed: 12-Nov-20 02:32 PM
Arrived: 12-Nov-20 03:25 PM
Distance/Time
Traveled:
96nm/0:53
Distance/Time
To Go:
Arrived

Flight Plot

Page will automatically refresh every two minutes.

Flight plan parsing failed; only flown route is shown


Map Options




Map Legend


Flown Route
Filed Route
Departure Airport
Arrival Airport
Navaid (VOR, NDB)
Fix

Horizontal Profiles

Position Reports

Time Latitude Longitude Heading Altitude Ground
Speed
12-Nov-20 14:25 32.131927 -110.944232 176 2564ft 0kts
12-Nov-20 14:26 32.131927 -110.944232 176 2564ft 0kts
12-Nov-20 14:26 32.131927 -110.944232 176 2564ft 0kts
12-Nov-20 14:27 32.131927 -110.944232 176 2564ft 0kts
12-Nov-20 14:28 32.131905 -110.944230 174 2564ft 2kts
12-Nov-20 14:29 32.131272 -110.943798 140 2565ft 0kts
12-Nov-20 14:30 32.130420 -110.943441 212 2566ft 16kts
12-Nov-20 14:31 32.119147 -110.957495 222 2912ft 72kts
12-Nov-20 14:32 32.119937 -110.978331 282 3507ft 67kts
12-Nov-20 14:33 32.126402 -111.001271 277 4005ft 71kts
12-Nov-20 14:34 32.132814 -111.028129 290 4305ft 80kts
12-Nov-20 14:35 32.156779 -111.035873 4 4399ft 107kts
12-Nov-20 14:36 32.190379 -111.030440 6 4494ft 123kts
12-Nov-20 14:37 32.226372 -111.032710 335 4490ft 123kts
12-Nov-20 14:38 32.256494 -111.054247 325 4483ft 121kts
12-Nov-20 14:39 32.285785 -111.077704 324 4478ft 120kts
12-Nov-20 14:40 32.315252 -111.101327 324 4471ft 120kts
12-Nov-20 14:41 32.344178 -111.124532 324 4467ft 120kts
12-Nov-20 14:42 32.372831 -111.147536 324 4467ft 120kts
12-Nov-20 14:43 32.401326 -111.170420 323 4458ft 119kts
12-Nov-20 14:44 32.429357 -111.192963 323 4458ft 118kts
12-Nov-20 14:45 32.456960 -111.215192 323 4457ft 117kts
12-Nov-20 14:46 32.484356 -111.237269 323 4458ft 117kts
12-Nov-20 14:47 32.511684 -111.259295 323 4457ft 117kts
12-Nov-20 14:48 32.539115 -111.281575 322 4458ft 117kts
12-Nov-20 14:49 32.566422 -111.304173 323 4457ft 117kts
12-Nov-20 14:50 32.593968 -111.326498 323 4457ft 117kts
12-Nov-20 14:51 32.621616 -111.348848 323 4457ft 117kts
12-Nov-20 14:52 32.649327 -111.371265 323 4458ft 117kts
12-Nov-20 14:53 32.676981 -111.393653 323 4460ft 117kts
12-Nov-20 14:54 32.704590 -111.416022 323 4461ft 117kts
12-Nov-20 14:55 32.732106 -111.438333 323 4463ft 117kts
12-Nov-20 14:56 32.759750 -111.460763 323 4465ft 117kts
12-Nov-20 14:57 32.787363 -111.483186 323 4466ft 117kts
12-Nov-20 14:58 32.814893 -111.505560 323 4468ft 117kts
12-Nov-20 14:59 32.842558 -111.528061 323 4471ft 117kts
12-Nov-20 15:00 32.870286 -111.550631 323 4473ft 117kts
12-Nov-20 15:01 32.897965 -111.573178 323 4474ft 117kts
12-Nov-20 15:02 32.925912 -111.595961 323 4475ft 117kts
12-Nov-20 15:03 32.953903 -111.618796 323 4475ft 117kts
12-Nov-20 15:04 32.981983 -111.641724 323 4476ft 118kts
12-Nov-20 15:05 33.010109 -111.664696 323 4477ft 118kts
12-Nov-20 15:06 33.038485 -111.687156 323 4477ft 118kts
12-Nov-20 15:07 33.066642 -111.710141 323 4477ft 118kts
12-Nov-20 15:08 33.094835 -111.733233 322 4475ft 118kts
12-Nov-20 15:09 33.122960 -111.756289 322 4474ft 118kts
12-Nov-20 15:10 33.151205 -111.779460 322 4472ft 118kts
12-Nov-20 15:11 33.179617 -111.802786 321 4470ft 118kts
12-Nov-20 15:12 33.208658 -111.826650 321 4468ft 119kts
12-Nov-20 15:13 33.238088 -111.850851 321 4467ft 119kts
12-Nov-20 15:14 33.268137 -111.875394 324 4008ft 127kts
12-Nov-20 15:15 33.299327 -111.900602 323 2935ft 126kts
12-Nov-20 15:16 33.327642 -111.923981 322 2499ft 96kts
12-Nov-20 15:17 33.348919 -111.941740 322 2500ft 82kts
12-Nov-20 15:18 33.368653 -111.958099 322 2375ft 91kts
12-Nov-20 15:19 33.391183 -111.976652 323 2228ft 87kts
12-Nov-20 15:20 33.405588 -111.997802 279 2230ft 88kts
12-Nov-20 15:21 33.409695 -112.023360 279 2228ft 72kts
12-Nov-20 15:22 33.419476 -112.043215 358 2097ft 65kts
12-Nov-20 15:23 33.428680 -112.032586 94 1303ft 66kts
12-Nov-20 15:24 33.427881 -112.021575 167 1113ft 9kts
12-Nov-20 15:25 33.426779 -112.023300 260 1113ft 0kts
12-Nov-20 15:26 33.426779 -112.023300 260 1113ft 0kts
12-Nov-20 15:27 33.426779 -112.023300 260 1113ft 0kts

Navigation Log

Ident Type
Flight plan parsing failed, navigation log unavailable